sensor_id;sensor_type;location;lat;lon;timestamp;P1;durP1;ratioP1;P2;durP2;ratioP2
29378;SDS011;16362;47.202;15.258;2022-07-06T00:01:49;4.22;;;3.83;;
29378;SDS011;16362;47.202;15.258;2022-07-06T00:04:17;4.18;;;3.97;;
29378;SDS011;16362;47.202;15.258;2022-07-06T00:06:45;4.13;;;3.97;;
29378;SDS011;16362;47.202;15.258;2022-07-06T00:09:12;8.10;;;4.00;;
29378;SDS011;16362;47.202;15.258;2022-07-06T00:11:39;4.88;;;3.88;;
29378;SDS011;16362;47.202;15.258;2022-07-06T00:14:06;4.22;;;4.03;;
29378;SDS011;16362;47.202;15.258;2022-07-06T00:16:33;4.10;;;3.90;;
29378;SDS011;16362;47.202;15.258;2022-07-06T00:19:00;5.18;;;4.15;;
29378;SDS011;16362;47.202;15.258;2022-07-06T00:21:27;6.18;;;3.72;;
29378;SDS011;16362;47.202;15.258;2022-07-06T00:23:53;12.57;;;3.90;;
29378;SDS011;16362;47.202;15.258;2022-07-06T00:26:20;3.60;;;3.47;;
29378;SDS011;16362;47.202;15.258;2022-07-06T00:28:47;4.05;;;3.63;;
29378;SDS011;16362;47.202;15.258;2022-07-06T00:31:14;7.05;;;3.90;;
29378;SDS011;16362;47.202;15.258;2022-07-06T00:33:40;3.70;;;3.50;;
29378;SDS011;16362;47.202;15.258;2022-07-06T00:36:07;4.82;;;3.67;;
29378;SDS011;16362;47.202;15.258;2022-07-06T00:38:34;3.95;;;3.70;;
29378;SDS011;16362;47.202;15.258;2022-07-06T00:41:01;4.22;;;3.78;;
29378;SDS011;16362;47.202;15.258;2022-07-06T00:43:28;3.60;;;3.50;;
29378;SDS011;16362;47.202;15.258;2022-07-06T00:45:54;4.03;;;3.75;;
29378;SDS011;16362;47.202;15.258;2022-07-06T00:48:21;3.90;;;3.72;;
29378;SDS011;16362;47.202;15.258;2022-07-06T00:50:49;3.70;;;3.47;;
29378;SDS011;16362;47.202;15.258;2022-07-06T00:53:15;4.03;;;3.72;;
29378;SDS011;16362;47.202;15.258;2022-07-06T00:55:42;4.00;;;3.80;;
29378;SDS011;16362;47.202;15.258;2022-07-06T00:58:09;4.95;;;4.05;;
29378;SDS011;16362;47.202;15.258;2022-07-06T01:00:36;8.13;;;4.03;;
29378;SDS011;16362;47.202;15.258;2022-07-06T01:03:03;6.78;;;3.85;;
29378;SDS011;16362;47.202;15.258;2022-07-06T01:05:30;4.25;;;3.78;;
29378;SDS011;16362;47.202;15.258;2022-07-06T01:07:57;4.18;;;3.88;;
29378;SDS011;16362;47.202;15.258;2022-07-06T01:10:24;6.65;;;3.95;;
29378;SDS011;16362;47.202;15.258;2022-07-06T01:12:51;6.22;;;3.88;;
29378;SDS011;16362;47.202;15.258;2022-07-06T01:15:19;4.28;;;3.97;;
29378;SDS011;16362;47.202;15.258;2022-07-06T01:17:48;5.13;;;4.00;;
29378;SDS011;16362;47.202;15.258;2022-07-06T01:20:19;5.22;;;3.47;;
29378;SDS011;16362;47.202;15.258;2022-07-06T01:22:50;8.43;;;3.88;;
29378;SDS011;16362;47.202;15.258;2022-07-06T01:25:19;4.03;;;3.72;;
29378;SDS011;16362;47.202;15.258;2022-07-06T01:27:47;4.60;;;3.80;;
29378;SDS011;16362;47.202;15.258;2022-07-06T01:30:14;5.85;;;3.85;;
29378;SDS011;16362;47.202;15.258;2022-07-06T01:32:44;5.68;;;3.80;;
29378;SDS011;16362;47.202;15.258;2022-07-06T01:35:12;9.20;;;4.13;;
29378;SDS011;16362;47.202;15.258;2022-07-06T01:37:41;9.02;;;4.30;;
29378;SDS011;16362;47.202;15.258;2022-07-06T01:40:09;6.72;;;3.92;;
29378;SDS011;16362;47.202;15.258;2022-07-06T01:42:37;9.73;;;3.97;;
29378;SDS011;16362;47.202;15.258;2022-07-06T01:45:06;4.40;;;4.00;;
29378;SDS011;16362;47.202;15.258;2022-07-06T01:47:33;6.50;;;3.63;;
29378;SDS011;16362;47.202;15.258;2022-07-06T01:50:01;4.55;;;3.63;;
29378;SDS011;16362;47.202;15.258;2022-07-06T01:52:33;3.60;;;3.50;;
29378;SDS011;16362;47.202;15.258;2022-07-06T01:55:00;4.00;;;3.65;;
29378;SDS011;16362;47.202;15.258;2022-07-06T01:57:27;5.15;;;3.90;;
29378;SDS011;16362;47.202;15.258;2022-07-06T01:59:53;4.00;;;3.80;;
29378;SDS011;16362;47.202;15.258;2022-07-06T02:02:20;4.40;;;4.07;;
29378;SDS011;16362;47.202;15.258;2022-07-06T02:04:47;5.38;;;3.78;;
29378;SDS011;16362;47.202;15.258;2022-07-06T02:07:13;3.92;;;3.83;;
29378;SDS011;16362;47.202;15.258;2022-07-06T02:09:40;4.50;;;4.28;;
29378;SDS011;16362;47.202;15.258;2022-07-06T02:12:07;3.80;;;3.70;;
29378;SDS011;16362;47.202;15.258;2022-07-06T02:14:34;5.15;;;3.80;;
29378;SDS011;16362;47.202;15.258;2022-07-06T02:17:00;3.70;;;3.50;;
29378;SDS011;16362;47.202;15.258;2022-07-06T02:19:27;3.50;;;3.40;;
29378;SDS011;16362;47.202;15.258;2022-07-06T02:21:54;4.70;;;3.30;;
29378;SDS011;16362;47.202;15.258;2022-07-06T02:24:21;3.83;;;3.65;;
29378;SDS011;16362;47.202;15.258;2022-07-06T02:26:48;4.78;;;3.70;;
29378;SDS011;16362;47.202;15.258;2022-07-06T02:29:14;4.03;;;3.92;;
29378;SDS011;16362;47.202;15.258;2022-07-06T02:31:41;4.10;;;3.90;;
29378;SDS011;16362;47.202;15.258;2022-07-06T02:34:08;4.13;;;3.92;;
29378;SDS011;16362;47.202;15.258;2022-07-06T02:36:34;3.75;;;3.55;;
29378;SDS011;16362;47.202;15.258;2022-07-06T02:39:01;4.28;;;4.18;;
29378;SDS011;16362;47.202;15.258;2022-07-06T02:41:28;3.85;;;3.75;;
29378;SDS011;16362;47.202;15.258;2022-07-06T02:43:55;3.72;;;3.63;;
29378;SDS011;16362;47.202;15.258;2022-07-06T02:46:22;8.98;;;3.97;;
29378;SDS011;16362;47.202;15.258;2022-07-06T02:48:48;3.80;;;3.60;;
29378;SDS011;16362;47.202;15.258;2022-07-06T02:51:15;5.65;;;4.20;;
29378;SDS011;16362;47.202;15.258;2022-07-06T02:53:42;4.50;;;4.25;;
29378;SDS011;16362;47.202;15.258;2022-07-06T02:56:08;4.38;;;3.97;;
29378;SDS011;16362;47.202;15.258;2022-07-06T02:58:35;6.65;;;4.15;;
29378;SDS011;16362;47.202;15.258;2022-07-06T03:01:02;5.43;;;4.03;;
29378;SDS011;16362;47.202;15.258;2022-07-06T03:03:29;5.40;;;3.80;;
29378;SDS011;16362;47.202;15.258;2022-07-06T03:05:56;4.50;;;4.30;;
29378;SDS011;16362;47.202;15.258;2022-07-06T03:08:22;4.50;;;4.20;;
29378;SDS011;16362;47.202;15.258;2022-07-06T03:10:50;4.40;;;4.20;;
29378;SDS011;16362;47.202;15.258;2022-07-06T03:13:17;4.68;;;4.15;;
29378;SDS011;16362;47.202;15.258;2022-07-06T03:15:44;5.10;;;4.45;;
29378;SDS011;16362;47.202;15.258;2022-07-06T03:18:10;4.18;;;3.90;;
29378;SDS011;16362;47.202;15.258;2022-07-06T03:20:37;4.15;;;3.70;;
29378;SDS011;16362;47.202;15.258;2022-07-06T03:23:04;3.70;;;3.60;;
29378;SDS011;16362;47.202;15.258;2022-07-06T03:25:31;8.70;;;3.70;;
29378;SDS011;16362;47.202;15.258;2022-07-06T03:27:59;6.90;;;4.57;;
29378;SDS011;16362;47.202;15.258;2022-07-06T03:30:26;4.13;;;3.83;;
29378;SDS011;16362;47.202;15.258;2022-07-06T03:32:52;4.05;;;3.90;;
29378;SDS011;16362;47.202;15.258;2022-07-06T03:35:19;4.05;;;3.63;;
29378;SDS011;16362;47.202;15.258;2022-07-06T03:37:46;4.15;;;3.92;;
29378;SDS011;16362;47.202;15.258;2022-07-06T03:40:13;3.92;;;3.80;;
29378;SDS011;16362;47.202;15.258;2022-07-06T03:42:41;5.60;;;3.92;;
29378;SDS011;16362;47.202;15.258;2022-07-06T03:45:08;6.80;;;5.03;;
29378;SDS011;16362;47.202;15.258;2022-07-06T03:47:35;3.88;;;3.58;;
29378;SDS011;16362;47.202;15.258;2022-07-06T03:50:02;4.30;;;4.03;;
29378;SDS011;16362;47.202;15.258;2022-07-06T03:52:29;3.80;;;3.70;;
29378;SDS011;16362;47.202;15.258;2022-07-06T03:54:56;7.63;;;3.50;;
29378;SDS011;16362;47.202;15.258;2022-07-06T03:57:22;3.70;;;3.50;;
29378;SDS011;16362;47.202;15.258;2022-07-06T03:59:49;3.63;;;3.53;;
29378;SDS011;16362;47.202;15.258;2022-07-06T04:02:16;4.35;;;3.95;;
29378;SDS011;16362;47.202;15.258;2022-07-06T04:04:43;3.97;;;3.78;;
29378;SDS011;16362;47.202;15.258;2022-07-06T04:07:10;4.25;;;3.85;;
29378;SDS011;16362;47.202;15.258;2022-07-06T04:09:36;8.05;;;3.40;;
29378;SDS011;16362;47.202;15.258;2022-07-06T04:12:03;4.07;;;3.88;;
29378;SDS011;16362;47.202;15.258;2022-07-06T04:14:30;5.90;;;3.75;;
29378;SDS011;16362;47.202;15.258;2022-07-06T04:16:57;6.60;;;3.60;;
29378;SDS011;16362;47.202;15.258;2022-07-06T04:19:24;4.95;;;3.60;;
29378;SDS011;16362;47.202;15.258;2022-07-06T04:21:50;4.70;;;3.53;;
29378;SDS011;16362;47.202;15.258;2022-07-06T04:24:17;3.60;;;3.40;;
29378;SDS011;16362;47.202;15.258;2022-07-06T04:26:44;4.18;;;3.55;;
29378;SDS011;16362;47.202;15.258;2022-07-06T04:29:10;5.43;;;3.60;;
29378;SDS011;16362;47.202;15.258;2022-07-06T04:31:37;3.65;;;3.53;;
29378;SDS011;16362;47.202;15.258;2022-07-06T04:34:04;3.95;;;3.45;;
29378;SDS011;16362;47.202;15.258;2022-07-06T04:36:31;3.67;;;3.40;;
29378;SDS011;16362;47.202;15.258;2022-07-06T04:38:58;3.25;;;3.15;;
29378;SDS011;16362;47.202;15.258;2022-07-06T04:41:25;3.63;;;3.42;;
29378;SDS011;16362;47.202;15.258;2022-07-06T04:43:52;3.95;;;3.80;;
29378;SDS011;16362;47.202;15.258;2022-07-06T04:46:19;7.70;;;4.25;;
29378;SDS011;16362;47.202;15.258;2022-07-06T04:48:46;3.50;;;3.38;;
29378;SDS011;16362;47.202;15.258;2022-07-06T04:51:12;2.97;;;2.88;;
29378;SDS011;16362;47.202;15.258;2022-07-06T04:53:40;3.78;;;3.35;;
29378;SDS011;16362;47.202;15.258;2022-07-06T04:56:07;4.63;;;4.32;;
29378;SDS011;16362;47.202;15.258;2022-07-06T04:58:34;3.78;;;3.67;;
29378;SDS011;16362;47.202;15.258;2022-07-06T05:01:00;8.45;;;4.15;;
29378;SDS011;16362;47.202;15.258;2022-07-06T05:03:27;4.00;;;3.60;;
29378;SDS011;16362;47.202;15.258;2022-07-06T05:05:54;3.60;;;3.50;;
29378;SDS011;16362;47.202;15.258;2022-07-06T05:08:21;4.55;;;4.13;;
29378;SDS011;16362;47.202;15.258;2022-07-06T05:10:48;4.32;;;4.05;;
29378;SDS011;16362;47.202;15.258;2022-07-06T05:13:15;4.00;;;3.70;;
29378;SDS011;16362;47.202;15.258;2022-07-06T05:15:42;6.47;;;3.55;;
29378;SDS011;16362;47.202;15.258;2022-07-06T05:18:09;3.55;;;3.28;;
29378;SDS011;16362;47.202;15.258;2022-07-06T05:20:36;2.97;;;2.60;;
29378;SDS011;16362;47.202;15.258;2022-07-06T05:23:02;2.88;;;2.72;;
29378;SDS011;16362;47.202;15.258;2022-07-06T05:25:29;3.20;;;2.78;;
29378;SDS011;16362;47.202;15.258;2022-07-06T05:27:56;3.25;;;3.05;;
29378;SDS011;16362;47.202;15.258;2022-07-06T05:30:23;3.28;;;2.33;;
29378;SDS011;16362;47.202;15.258;2022-07-06T05:32:50;3.42;;;2.33;;
29378;SDS011;16362;47.202;15.258;2022-07-06T05:35:17;2.03;;;1.98;;
29378;SDS011;16362;47.202;15.258;2022-07-06T05:38:04;2.35;;;2.25;;
29378;SDS011;16362;47.202;15.258;2022-07-06T05:40:31;3.33;;;2.08;;
29378;SDS011;16362;47.202;15.258;2022-07-06T05:42:58;2.80;;;2.60;;
29378;SDS011;16362;47.202;15.258;2022-07-06T05:45:24;2.20;;;2.10;;
29378;SDS011;16362;47.202;15.258;2022-07-06T05:47:51;6.05;;;2.03;;
29378;SDS011;16362;47.202;15.258;2022-07-06T05:50:36;3.72;;;2.10;;
29378;SDS011;16362;47.202;15.258;2022-07-06T05:53:04;2.78;;;2.30;;
29378;SDS011;16362;47.202;15.258;2022-07-06T05:55:44;2.50;;;2.40;;
29378;SDS011;16362;47.202;15.258;2022-07-06T05:58:11;2.20;;;1.98;;
29378;SDS011;16362;47.202;15.258;2022-07-06T06:00:38;2.92;;;2.00;;
29378;SDS011;16362;47.202;15.258;2022-07-06T06:03:05;7.13;;;2.30;;
29378;SDS011;16362;47.202;15.258;2022-07-06T06:05:32;3.00;;;2.03;;
29378;SDS011;16362;47.202;15.258;2022-07-06T06:07:59;2.20;;;2.10;;
29378;SDS011;16362;47.202;15.258;2022-07-06T06:10:26;2.28;;;2.00;;
29378;SDS011;16362;47.202;15.258;2022-07-06T06:12:52;2.40;;;2.30;;
29378;SDS011;16362;47.202;15.258;2022-07-06T06:15:19;2.10;;;1.90;;
29378;SDS011;16362;47.202;15.258;2022-07-06T06:17:46;3.83;;;2.80;;
29378;SDS011;16362;47.202;15.258;2022-07-06T06:20:13;2.97;;;2.70;;
29378;SDS011;16362;47.202;15.258;2022-07-06T06:22:51;2.70;;;2.60;;
29378;SDS011;16362;47.202;15.258;2022-07-06T06:25:20;2.40;;;2.30;;
29378;SDS011;16362;47.202;15.258;2022-07-06T06:28:13;3.83;;;2.28;;
29378;SDS011;16362;47.202;15.258;2022-07-06T06:30:40;2.20;;;2.13;;
29378;SDS011;16362;47.202;15.258;2022-07-06T06:33:14;2.50;;;2.40;;
29378;SDS011;16362;47.202;15.258;2022-07-06T06:35:43;2.55;;;2.10;;
29378;SDS011;16362;47.202;15.258;2022-07-06T06:38:12;2.20;;;2.10;;
29378;SDS011;16362;47.202;15.258;2022-07-06T06:40:39;2.38;;;2.28;;
29378;SDS011;16362;47.202;15.258;2022-07-06T06:43:06;2.22;;;2.10;;
29378;SDS011;16362;47.202;15.258;2022-07-06T06:45:33;2.85;;;2.75;;
29378;SDS011;16362;47.202;15.258;2022-07-06T06:48:00;3.83;;;2.38;;
29378;SDS011;16362;47.202;15.258;2022-07-06T06:50:27;3.00;;;2.80;;
29378;SDS011;16362;47.202;15.258;2022-07-06T06:52:54;3.47;;;3.20;;
29378;SDS011;16362;47.202;15.258;2022-07-06T06:55:21;2.97;;;2.78;;
29378;SDS011;16362;47.202;15.258;2022-07-06T06:57:48;2.38;;;2.28;;
29378;SDS011;16362;47.202;15.258;2022-07-06T07:00:15;2.47;;;2.38;;
29378;SDS011;16362;47.202;15.258;2022-07-06T07:02:42;2.40;;;2.30;;
29378;SDS011;16362;47.202;15.258;2022-07-06T07:05:09;4.05;;;2.38;;
29378;SDS011;16362;47.202;15.258;2022-07-06T07:07:36;2.65;;;2.55;;
29378;SDS011;16362;47.202;15.258;2022-07-06T07:10:04;2.83;;;2.63;;
29378;SDS011;16362;47.202;15.258;2022-07-06T07:12:31;2.88;;;2.67;;
29378;SDS011;16362;47.202;15.258;2022-07-06T07:14:59;4.53;;;2.72;;
29378;SDS011;16362;47.202;15.258;2022-07-06T07:17:26;2.95;;;2.75;;
29378;SDS011;16362;47.202;15.258;2022-07-06T07:19:53;3.25;;;3.05;;
29378;SDS011;16362;47.202;15.258;2022-07-06T07:22:22;4.05;;;3.10;;
29378;SDS011;16362;47.202;15.258;2022-07-06T07:24:49;4.72;;;2.90;;
29378;SDS011;16362;47.202;15.258;2022-07-06T07:27:15;7.88;;;3.65;;
29378;SDS011;16362;47.202;15.258;2022-07-06T07:29:42;5.85;;;3.47;;
29378;SDS011;16362;47.202;15.258;2022-07-06T07:32:09;6.20;;;3.10;;
29378;SDS011;16362;47.202;15.258;2022-07-06T07:34:36;5.05;;;3.10;;
29378;SDS011;16362;47.202;15.258;2022-07-06T07:37:02;3.75;;;2.50;;
29378;SDS011;16362;47.202;15.258;2022-07-06T07:39:29;7.90;;;2.50;;
29378;SDS011;16362;47.202;15.258;2022-07-06T07:41:56;3.05;;;2.60;;
29378;SDS011;16362;47.202;15.258;2022-07-06T07:44:23;2.92;;;2.50;;
29378;SDS011;16362;47.202;15.258;2022-07-06T07:46:51;4.43;;;2.67;;
29378;SDS011;16362;47.202;15.258;2022-07-06T07:49:19;5.75;;;2.63;;
29378;SDS011;16362;47.202;15.258;2022-07-06T07:51:50;5.50;;;2.85;;
29378;SDS011;16362;47.202;15.258;2022-07-06T07:54:17;2.00;;;1.90;;
29378;SDS011;16362;47.202;15.258;2022-07-06T07:56:44;1.92;;;1.83;;
29378;SDS011;16362;47.202;15.258;2022-07-06T07:59:11;3.00;;;1.40;;
29378;SDS011;16362;47.202;15.258;2022-07-06T08:01:37;1.58;;;1.40;;
29378;SDS011;16362;47.202;15.258;2022-07-06T08:04:04;1.48;;;1.48;;
29378;SDS011;16362;47.202;15.258;2022-07-06T08:06:32;2.83;;;1.48;;
29378;SDS011;16362;47.202;15.258;2022-07-06T08:08:59;1.35;;;1.35;;
29378;SDS011;16362;47.202;15.258;2022-07-06T08:11:26;3.80;;;1.40;;
29378;SDS011;16362;47.202;15.258;2022-07-06T08:13:53;3.15;;;1.50;;
29378;SDS011;16362;47.202;15.258;2022-07-06T08:16:19;2.30;;;1.60;;
29378;SDS011;16362;47.202;15.258;2022-07-06T08:18:46;1.60;;;1.50;;
29378;SDS011;16362;47.202;15.258;2022-07-06T08:21:13;1.40;;;1.40;;
29378;SDS011;16362;47.202;15.258;2022-07-06T08:23:51;1.25;;;1.25;;
29378;SDS011;16362;47.202;15.258;2022-07-06T08:26:18;1.30;;;1.30;;
29378;SDS011;16362;47.202;15.258;2022-07-06T08:28:45;1.50;;;1.10;;
29378;SDS011;16362;47.202;15.258;2022-07-06T08:31:13;2.28;;;1.25;;
29378;SDS011;16362;47.202;15.258;2022-07-06T08:34:00;2.42;;;1.30;;
29378;SDS011;16362;47.202;15.258;2022-07-06T08:36:27;1.55;;;1.02;;
29378;SDS011;16362;47.202;15.258;2022-07-06T08:38:54;2.42;;;1.27;;
29378;SDS011;16362;47.202;15.258;2022-07-06T08:41:21;9.05;;;1.70;;
29378;SDS011;16362;47.202;15.258;2022-07-06T08:43:51;1.55;;;1.40;;
29378;SDS011;16362;47.202;15.258;2022-07-06T08:46:20;2.80;;;1.33;;
29378;SDS011;16362;47.202;15.258;2022-07-06T08:48:48;1.27;;;1.27;;
29378;SDS011;16362;47.202;15.258;2022-07-06T08:51:16;5.18;;;1.30;;
29378;SDS011;16362;47.202;15.258;2022-07-06T08:53:44;1.20;;;1.20;;
29378;SDS011;16362;47.202;15.258;2022-07-06T08:56:12;1.23;;;1.20;;
29378;SDS011;16362;47.202;15.258;2022-07-06T08:58:39;4.43;;;1.50;;
29378;SDS011;16362;47.202;15.258;2022-07-06T09:01:09;1.10;;;1.10;;
29378;SDS011;16362;47.202;15.258;2022-07-06T09:03:38;2.25;;;1.20;;
29378;SDS011;16362;47.202;15.258;2022-07-06T09:06:10;1.10;;;1.05;;
29378;SDS011;16362;47.202;15.258;2022-07-06T09:08:42;1.30;;;1.30;;
29378;SDS011;16362;47.202;15.258;2022-07-06T09:11:11;1.42;;;1.10;;
29378;SDS011;16362;47.202;15.258;2022-07-06T09:13:37;1.50;;;1.50;;
29378;SDS011;16362;47.202;15.258;2022-07-06T09:16:11;2.22;;;1.30;;
29378;SDS011;16362;47.202;15.258;2022-07-06T09:18:59;2.15;;;1.30;;
29378;SDS011;16362;47.202;15.258;2022-07-06T09:21:27;1.55;;;1.10;;
29378;SDS011;16362;47.202;15.258;2022-07-06T09:24:00;1.10;;;1.10;;
29378;SDS011;16362;47.202;15.258;2022-07-06T09:26:30;1.40;;;1.40;;
29378;SDS011;16362;47.202;15.258;2022-07-06T09:28:57;2.25;;;1.30;;
29378;SDS011;16362;47.202;15.258;2022-07-06T09:31:27;2.03;;;1.20;;
29378;SDS011;16362;47.202;15.258;2022-07-06T09:41:48;1.40;;;1.30;;
29378;SDS011;16362;47.202;15.258;2022-07-06T09:44:36;1.92;;;1.35;;
29378;SDS011;16362;47.202;15.258;2022-07-06T09:47:05;1.30;;;1.17;;
29378;SDS011;16362;47.202;15.258;2022-07-06T09:49:35;1.10;;;1.10;;
29378;SDS011;16362;47.202;15.258;2022-07-06T09:52:04;1.50;;;1.40;;
29378;SDS011;16362;47.202;15.258;2022-07-06T09:54:33;1.73;;;1.30;;
29378;SDS011;16362;47.202;15.258;2022-07-06T09:57:01;2.10;;;1.23;;
29378;SDS011;16362;47.202;15.258;2022-07-06T09:59:34;1.20;;;1.20;;
29378;SDS011;16362;47.202;15.258;2022-07-06T10:02:03;2.13;;;1.00;;
29378;SDS011;16362;47.202;15.258;2022-07-06T10:04:31;1.20;;;1.10;;
29378;SDS011;16362;47.202;15.258;2022-07-06T10:06:58;1.25;;;0.95;;
29378;SDS011;16362;47.202;15.258;2022-07-06T10:09:27;1.20;;;1.20;;
29378;SDS011;16362;47.202;15.258;2022-07-06T10:11:58;1.20;;;1.20;;
29378;SDS011;16362;47.202;15.258;2022-07-06T10:14:30;1.10;;;1.10;;
29378;SDS011;16362;47.202;15.258;2022-07-06T10:16:59;2.28;;;1.10;;
29378;SDS011;16362;47.202;15.258;2022-07-06T10:19:28;1.35;;;1.23;;
29378;SDS011;16362;47.202;15.258;2022-07-06T10:21:56;1.30;;;1.20;;
29378;SDS011;16362;47.202;15.258;2022-07-06T10:24:27;1.10;;;1.10;;
29378;SDS011;16362;47.202;15.258;2022-07-06T10:26:54;1.00;;;1.00;;
29378;SDS011;16362;47.202;15.258;2022-07-06T10:29:22;1.65;;;1.25;;
29378;SDS011;16362;47.202;15.258;2022-07-06T10:31:50;3.60;;;1.70;;
29378;SDS011;16362;47.202;15.258;2022-07-06T10:34:18;1.40;;;1.30;;
29378;SDS011;16362;47.202;15.258;2022-07-06T10:36:50;1.17;;;1.17;;
29378;SDS011;16362;47.202;15.258;2022-07-06T10:39:35;1.33;;;1.20;;
29378;SDS011;16362;47.202;15.258;2022-07-06T10:42:40;1.10;;;1.10;;
29378;SDS011;16362;47.202;15.258;2022-07-06T10:45:12;1.10;;;1.10;;
29378;SDS011;16362;47.202;15.258;2022-07-06T10:47:41;2.38;;;2.17;;
29378;SDS011;16362;47.202;15.258;2022-07-06T10:50:08;1.10;;;1.00;;
29378;SDS011;16362;47.202;15.258;2022-07-06T10:52:52;1.30;;;1.27;;
29378;SDS011;16362;47.202;15.258;2022-07-06T10:55:34;1.33;;;1.30;;
29378;SDS011;16362;47.202;15.258;2022-07-06T10:58:03;1.25;;;1.13;;
29378;SDS011;16362;47.202;15.258;2022-07-06T11:06:13;1.00;;;1.00;;
29378;SDS011;16362;47.202;15.258;2022-07-06T11:14:01;3.10;;;1.40;;
29378;SDS011;16362;47.202;15.258;2022-07-06T11:16:31;3.40;;;1.30;;
29378;SDS011;16362;47.202;15.258;2022-07-06T11:21:36;2.28;;;1.20;;
29378;SDS011;16362;47.202;15.258;2022-07-06T11:24:14;1.10;;;1.10;;
29378;SDS011;16362;47.202;15.258;2022-07-06T11:26:44;0.95;;;0.95;;
29378;SDS011;16362;47.202;15.258;2022-07-06T11:29:12;1.13;;;1.13;;
29378;SDS011;16362;47.202;15.258;2022-07-06T11:31:41;1.20;;;1.10;;
29378;SDS011;16362;47.202;15.258;2022-07-06T11:34:09;1.33;;;1.10;;
29378;SDS011;16362;47.202;15.258;2022-07-06T11:36:38;0.80;;;0.80;;
29378;SDS011;16362;47.202;15.258;2022-07-06T11:39:10;0.98;;;0.93;;
29378;SDS011;16362;47.202;15.258;2022-07-06T11:41:38;2.92;;;1.05;;
29378;SDS011;16362;47.202;15.258;2022-07-06T11:44:04;1.08;;;1.08;;
29378;SDS011;16362;47.202;15.258;2022-07-06T11:46:32;2.53;;;1.10;;
29378;SDS011;16362;47.202;15.258;2022-07-06T11:49:04;1.00;;;1.00;;
29378;SDS011;16362;47.202;15.258;2022-07-06T11:51:36;4.88;;;1.33;;
29378;SDS011;16362;47.202;15.258;2022-07-06T11:54:09;0.93;;;0.93;;
29378;SDS011;16362;47.202;15.258;2022-07-06T11:59:25;1.38;;;1.27;;
29378;SDS011;16362;47.202;15.258;2022-07-06T12:04:29;1.10;;;1.10;;
29378;SDS011;16362;47.202;15.258;2022-07-06T12:07:01;2.28;;;1.20;;
29378;SDS011;16362;47.202;15.258;2022-07-06T12:09:33;3.13;;;1.00;;
29378;SDS011;16362;47.202;15.258;2022-07-06T12:12:01;2.17;;;1.00;;
29378;SDS011;16362;47.202;15.258;2022-07-06T12:14:30;1.25;;;1.25;;
29378;SDS011;16362;47.202;15.258;2022-07-06T12:17:02;1.10;;;1.10;;
29378;SDS011;16362;47.202;15.258;2022-07-06T12:22:01;1.10;;;1.10;;
29378;SDS011;16362;47.202;15.258;2022-07-06T12:24:29;1.17;;;1.17;;
29378;SDS011;16362;47.202;15.258;2022-07-06T12:26:58;2.92;;;1.13;;
29378;SDS011;16362;47.202;15.258;2022-07-06T12:29:35;0.90;;;0.90;;
29378;SDS011;16362;47.202;15.258;2022-07-06T12:32:02;1.10;;;1.10;;
29378;SDS011;16362;47.202;15.258;2022-07-06T12:34:29;1.38;;;1.00;;
29378;SDS011;16362;47.202;15.258;2022-07-06T12:36:58;1.00;;;1.00;;
29378;SDS011;16362;47.202;15.258;2022-07-06T12:42:06;0.90;;;0.90;;
29378;SDS011;16362;47.202;15.258;2022-07-06T12:44:43;1.10;;;1.10;;
29378;SDS011;16362;47.202;15.258;2022-07-06T12:47:11;0.85;;;0.85;;
29378;SDS011;16362;47.202;15.258;2022-07-06T12:49:39;1.00;;;1.00;;
29378;SDS011;16362;47.202;15.258;2022-07-06T12:54:33;1.15;;;1.10;;
29378;SDS011;16362;47.202;15.258;2022-07-06T12:57:06;0.93;;;0.90;;
29378;SDS011;16362;47.202;15.258;2022-07-06T12:59:35;1.00;;;0.98;;
29378;SDS011;16362;47.202;15.258;2022-07-06T13:02:06;1.35;;;1.08;;
29378;SDS011;16362;47.202;15.258;2022-07-06T13:04:36;1.13;;;1.05;;
29378;SDS011;16362;47.202;15.258;2022-07-06T13:07:03;2.05;;;1.00;;
29378;SDS011;16362;47.202;15.258;2022-07-06T13:09:33;0.82;;;0.82;;
29378;SDS011;16362;47.202;15.258;2022-07-06T13:12:00;1.50;;;1.00;;
29378;SDS011;16362;47.202;15.258;2022-07-06T13:14:27;1.83;;;1.05;;
29378;SDS011;16362;47.202;15.258;2022-07-06T13:16:54;1.20;;;1.20;;
29378;SDS011;16362;47.202;15.258;2022-07-06T13:19:22;0.90;;;0.90;;
29378;SDS011;16362;47.202;15.258;2022-07-06T13:21:49;1.05;;;1.05;;
29378;SDS011;16362;47.202;15.258;2022-07-06T13:24:16;1.00;;;1.00;;
29378;SDS011;16362;47.202;15.258;2022-07-06T13:26:43;0.85;;;0.85;;
29378;SDS011;16362;47.202;15.258;2022-07-06T13:29:10;1.67;;;0.80;;
29378;SDS011;16362;47.202;15.258;2022-07-06T13:31:38;0.90;;;0.90;;
29378;SDS011;16362;47.202;15.258;2022-07-06T13:34:05;3.83;;;1.30;;
29378;SDS011;16362;47.202;15.258;2022-07-06T13:36:34;1.15;;;1.15;;
29378;SDS011;16362;47.202;15.258;2022-07-06T13:39:02;1.20;;;0.98;;
29378;SDS011;16362;47.202;15.258;2022-07-06T13:41:29;0.85;;;0.85;;
29378;SDS011;16362;47.202;15.258;2022-07-06T13:43:56;1.10;;;1.00;;
29378;SDS011;16362;47.202;15.258;2022-07-06T13:46:23;1.63;;;1.00;;
29378;SDS011;16362;47.202;15.258;2022-07-06T13:48:50;1.05;;;1.05;;
29378;SDS011;16362;47.202;15.258;2022-07-06T13:51:18;3.13;;;1.10;;
29378;SDS011;16362;47.202;15.258;2022-07-06T13:53:45;0.90;;;0.90;;
29378;SDS011;16362;47.202;15.258;2022-07-06T13:56:12;1.27;;;1.08;;
29378;SDS011;16362;47.202;15.258;2022-07-06T13:58:39;0.70;;;0.70;;
29378;SDS011;16362;47.202;15.258;2022-07-06T14:01:06;1.10;;;1.10;;
29378;SDS011;16362;47.202;15.258;2022-07-06T14:03:32;1.58;;;1.25;;
29378;SDS011;16362;47.202;15.258;2022-07-06T14:06:00;0.90;;;0.90;;
29378;SDS011;16362;47.202;15.258;2022-07-06T14:08:30;2.55;;;1.60;;
29378;SDS011;16362;47.202;15.258;2022-07-06T14:10:57;1.25;;;1.23;;
29378;SDS011;16362;47.202;15.258;2022-07-06T14:13:24;3.30;;;1.20;;
29378;SDS011;16362;47.202;15.258;2022-07-06T14:15:51;1.20;;;1.20;;
29378;SDS011;16362;47.202;15.258;2022-07-06T14:18:19;1.02;;;1.00;;
29378;SDS011;16362;47.202;15.258;2022-07-06T14:20:47;2.10;;;1.23;;
29378;SDS011;16362;47.202;15.258;2022-07-06T14:23:15;4.78;;;1.42;;
29378;SDS011;16362;47.202;15.258;2022-07-06T14:25:43;1.70;;;1.10;;
29378;SDS011;16362;47.202;15.258;2022-07-06T14:28:10;1.10;;;1.10;;
29378;SDS011;16362;47.202;15.258;2022-07-06T14:30:40;1.05;;;1.05;;
29378;SDS011;16362;47.202;15.258;2022-07-06T14:33:08;4.72;;;1.50;;
29378;SDS011;16362;47.202;15.258;2022-07-06T14:35:40;2.25;;;1.20;;
29378;SDS011;16362;47.202;15.258;2022-07-06T14:38:09;4.47;;;1.25;;
29378;SDS011;16362;47.202;15.258;2022-07-06T14:40:37;1.50;;;1.40;;
29378;SDS011;16362;47.202;15.258;2022-07-06T14:43:03;1.20;;;1.20;;
29378;SDS011;16362;47.202;15.258;2022-07-06T14:45:30;1.45;;;1.15;;
29378;SDS011;16362;47.202;15.258;2022-07-06T14:47:57;4.50;;;1.30;;
29378;SDS011;16362;47.202;15.258;2022-07-06T14:50:24;2.65;;;1.27;;
29378;SDS011;16362;47.202;15.258;2022-07-06T14:52:51;2.85;;;1.30;;
29378;SDS011;16362;47.202;15.258;2022-07-06T14:55:19;1.85;;;1.38;;
29378;SDS011;16362;47.202;15.258;2022-07-06T14:57:46;1.38;;;1.38;;
29378;SDS011;16362;47.202;15.258;2022-07-06T15:00:13;5.85;;;1.30;;
29378;SDS011;16362;47.202;15.258;2022-07-06T15:02:42;1.40;;;1.30;;
29378;SDS011;16362;47.202;15.258;2022-07-06T15:05:09;2.88;;;1.10;;
29378;SDS011;16362;47.202;15.258;2022-07-06T15:07:37;1.40;;;1.30;;
29378;SDS011;16362;47.202;15.258;2022-07-06T15:10:05;2.45;;;1.20;;
29378;SDS011;16362;47.202;15.258;2022-07-06T15:12:32;3.42;;;1.40;;
29378;SDS011;16362;47.202;15.258;2022-07-06T15:14:59;1.00;;;1.00;;